Time;durP1;ratioP1;P1;durP2;ratioP2;P2;SDS_P1;SDS_P2;PMS_P1;PMS_P2;Temp;Humidity;BMP_temperature;BMP_pressure;BME280_temperature;BME280_humidity;BME280_pressure;Samples;Min_cycle;Max_cycle;Signal;HPM_P1;HPM_P2
2021/06/12 00:00:10;;;;;;;1.20;0.98;;;;;;;13.95;100.00;97416.25;5031327;28;20025;-77
2021/06/12 00:02:36;;;;;;;0.40;0.40;;;;;;;14.02;100.00;97430.97;5047833;28;20044;-78
2021/06/12 00:05:04;;;;;;;1.23;0.95;;;;;;;13.77;100.00;97385.44;5040909;28;20025;-77
2021/06/12 00:07:29;;;;;;;1.33;1.13;;;;;;;14.09;100.00;97426.78;5031408;28;20452;-77
2021/06/12 00:09:55;;;;;;;0.73;0.63;;;;;;;13.92;100.00;97400.38;5047659;28;20019;-77
2021/06/12 00:12:20;;;;;;;2.28;1.40;;;;;;;13.94;100.00;97415.41;5031144;28;20526;-77
2021/06/12 00:14:48;;;;;;;0.63;0.63;;;;;;;14.00;100.00;97412.25;5030909;28;20104;-77
2021/06/12 00:17:13;;;;;;;0.55;0.55;;;;;;;13.99;100.00;97410.53;5047759;28;20033;-78
2021/06/12 00:19:39;;;;;;;0.40;0.32;;;;;;;13.91;100.00;97398.66;5014403;28;20504;-78
2021/06/12 00:22:04;;;;;;;0.63;0.63;;;;;;;14.04;100.00;97423.63;5032148;28;20116;-76
2021/06/12 00:24:30;;;;;;;0.70;0.70;;;;;;;14.03;100.00;97421.91;5031131;28;20029;-76
2021/06/12 00:26:56;;;;;;;1.50;0.75;;;;;;;13.85;100.00;97393.75;5047387;28;20025;-76
2021/06/12 00:29:21;;;;;;;0.73;0.55;;;;;;;13.87;100.00;97392.66;5047711;28;20104;-76
2021/06/12 00:31:47;;;;;;;1.20;0.60;;;;;;;13.89;100.00;97392.53;5037297;28;20095;-76
2021/06/12 00:34:12;;;;;;;0.68;0.52;;;;;;;13.86;100.00;97382.88;5011101;28;20028;-76
2021/06/12 00:36:38;;;;;;;1.00;0.35;;;;;;;14.07;100.00;97404.56;5027524;28;20445;-76
2021/06/12 00:39:04;;;;;;;0.55;0.47;;;;;;;14.03;100.00;97400.38;5032073;28;20104;-78
2021/06/12 00:41:30;;;;;;;0.88;0.88;;;;;;;14.10;100.00;97405.16;5039931;28;20038;-75
2021/06/12 00:43:56;;;;;;;0.70;0.57;;;;;;;14.26;100.00;97422.78;5046361;28;20080;-76
2021/06/12 00:46:22;;;;;;;0.70;0.50;;;;;;;14.16;100.00;97401.13;5047121;28;20521;-77
2021/06/12 00:48:48;;;;;;;1.65;1.00;;;;;;;14.16;100.00;97401.13;5047136;28;20061;-76
2021/06/12 00:51:13;;;;;;;8.88;2.13;;;;;;;14.35;100.00;97408.66;5031892;28;20021;-76
2021/06/12 00:53:41;;;;;;;0.73;0.70;;;;;;;14.39;100.00;97402.91;5030146;28;20778;-76
2021/06/12 00:56:09;;;;;;;9.85;2.15;;;;;;;14.39;100.00;97408.31;5043079;28;20088;-76
2021/06/12 00:58:36;;;;;;;1.85;1.15;;;;;;;14.28;100.00;97392.09;5027135;28;20025;-76
2021/06/12 01:01:03;;;;;;;1.38;0.70;;;;;;;14.47;100.00;97427.38;5010431;28;20053;-76
2021/06/12 01:03:29;;;;;;;1.80;0.82;;;;;;;14.34;100.00;97406.94;4994143;28;20029;-78
2021/06/12 01:05:59;;;;;;;11.77;2.05;;;;;;;14.45;100.00;97423.09;5026690;28;20048;-77
2021/06/12 01:08:24;;;;;;;1.42;0.77;;;;;;;14.16;100.00;97366.16;5024615;28;20374;-76
2021/06/12 01:10:50;;;;;;;1.08;0.88;;;;;;;14.45;100.00;97426.66;5029863;28;20113;-76
2021/06/12 01:13:23;;;;;;;5.05;1.05;;;;;;;14.56;100.00;97437.41;5046881;28;20014;-76
2021/06/12 01:15:56;;;;;;;3.20;1.45;;;;;;;14.30;100.00;97392.00;5046433;28;20556;-76
2021/06/12 01:18:31;;;;;;;0.95;0.60;;;;;;;14.55;100.00;97421.41;5016162;28;20053;-77
2021/06/12 01:21:00;;;;;;;1.23;1.13;;;;;;;14.70;100.00;97443.53;5028604;28;20528;-77
2021/06/12 01:23:35;;;;;;;2.50;1.27;;;;;;;14.67;100.00;97430.31;5023915;28;20083;-78
2021/06/12 01:26:29;;;;;;;0.68;0.63;;;;;;;14.64;100.00;97432.25;5009979;28;20045;-78
2021/06/12 01:29:09;;;;;;;1.90;1.25;;;;;;;14.59;100.00;97439.00;5009832;28;20025;-76
2021/06/12 01:31:35;;;;;;;2.83;0.85;;;;;;;14.55;100.00;97422.22;5010288;28;20017;-77
2021/06/12 01:34:03;;;;;;;0.80;0.80;;;;;;;14.48;100.00;97399.50;5026301;28;20404;-77
2021/06/12 01:36:29;;;;;;;1.20;0.80;;;;;;;14.59;100.00;97417.44;5009937;28;20129;-76
2021/06/12 01:38:55;;;;;;;1.08;0.50;;;;;;;14.63;100.00;97430.56;5042891;28;20032;-76
2021/06/12 01:41:21;;;;;;;0.45;0.38;;;;;;;14.47;100.00;97416.59;5009990;28;20037;-76
2021/06/12 01:43:49;;;;;;;0.32;0.30;;;;;;;14.56;100.00;97437.41;5009883;28;20045;-76
2021/06/12 01:46:15;;;;;;;0.70;0.50;;;;;;;14.49;100.00;97416.47;5010143;28;20046;-76
2021/06/12 01:48:43;;;;;;;2.33;1.02;;;;;;;14.35;100.00;97401.44;5026554;28;20075;-76
2021/06/12 01:51:08;;;;;;;1.48;0.80;;;;;;;14.52;100.00;97416.22;5009748;28;20045;-76
2021/06/12 01:53:36;;;;;;;2.05;0.75;;;;;;;14.39;100.00;97389.47;5009845;28;20030;-78
2021/06/12 01:56:05;;;;;;;8.05;0.95;;;;;;;14.46;100.00;97414.88;5028025;28;20091;-76
2021/06/12 01:58:30;;;;;;;0.80;0.80;;;;;;;14.27;100.00;97385.03;5029770;28;20033;-77
2021/06/12 02:00:57;;;;;;;0.40;0.40;;;;;;;14.35;100.00;97396.06;5029662;28;20096;-75
2021/06/12 02:03:23;;;;;;;0.70;0.70;;;;;;;14.46;100.00;97405.94;5041465;28;20089;-75
2021/06/12 02:05:49;;;;;;;3.33;1.20;;;;;;;14.65;100.00;97433.13;5042936;28;20057;-77
2021/06/12 02:08:16;;;;;;;1.25;0.70;;;;;;;14.65;100.00;97439.38;5046311;28;20087;-77
2021/06/12 02:10:44;;;;;;;0.60;0.60;;;;;;;14.57;100.00;97428.38;5025360;28;20036;-76
2021/06/12 02:13:10;;;;;;;0.45;0.30;;;;;;;14.49;100.00;97428.09;5026774;28;20041;-76
2021/06/12 02:15:36;;;;;;;3.03;1.20;;;;;;;14.64;100.00;97448.41;5026259;28;20034;-76
2021/06/12 02:18:08;;;;;;;1.23;0.65;;;;;;;14.51;100.00;97423.47;5009568;28;20034;-76
2021/06/12 02:20:36;;;;;;;1.03;0.60;;;;;;;14.50;100.00;97428.97;5010778;28;20095;-76
2021/06/12 02:23:03;;;;;;;1.90;1.20;;;;;;;14.55;100.00;97424.91;5049764;28;20025;-76
2021/06/12 02:25:29;;;;;;;1.73;1.20;;;;;;;14.37;100.00;97399.47;5026263;28;20445;-77
2021/06/12 02:27:56;;;;;;;0.95;0.75;;;;;;;14.66;100.00;97440.22;5041137;28;20129;-76
2021/06/12 02:30:25;;;;;;;0.85;0.85;;;;;;;14.63;100.00;97444.03;4997122;28;20029;-76
2021/06/12 02:33:02;;;;;;;1.88;0.95;;;;;;;14.49;100.00;97408.41;5029608;28;20477;-76
2021/06/12 02:35:28;;;;;;;1.00;0.90;;;;;;;14.54;100.00;97409.75;5034338;28;20059;-76
2021/06/12 02:37:54;;;;;;;1.27;0.85;;;;;;;14.55;100.00;97424.91;5035969;28;20025;-76
2021/06/12 02:40:20;;;;;;;1.02;0.55;;;;;;;14.47;100.00;97423.81;5016465;28;20021;-78
2021/06/12 02:42:45;;;;;;;2.58;1.40;;;;;;;14.55;100.00;97424.91;5032873;28;20032;-78
2021/06/12 02:45:11;;;;;;;0.70;0.60;;;;;;;14.49;100.00;97429.94;5018441;28;20040;-76
2021/06/12 02:47:59;;;;;;;0.20;0.20;;;;;;;14.34;100.00;97391.63;5038761;28;20025;-76
2021/06/12 02:50:28;;;;;;;1.50;0.50;;;;;;;14.64;100.00;97451.09;5020688;28;20108;-76
2021/06/12 02:52:57;;;;;;;1.38;1.17;;;;;;;14.69;100.00;97448.06;5036322;28;20515;-77
2021/06/12 02:55:24;;;;;;;4.13;1.90;;;;;;;14.53;100.00;97428.72;5053809;28;20104;-78
2021/06/12 03:00:25;;;;;;;1.75;1.25;;;;;;;14.63;100.00;97427.88;5482308;22;20060;-80
2021/06/12 03:02:51;;;;;;;2.55;1.63;;;;;;;14.53;100.00;97429.56;5053895;28;20120;-80
2021/06/12 03:05:20;;;;;;;2.30;1.08;;;;;;;14.59;100.00;97449.75;5054787;28;20032;-77
2021/06/12 03:07:48;;;;;;;1.10;1.00;;;;;;;14.53;100.00;97444.88;5055582;28;20050;-77
2021/06/12 03:10:15;;;;;;;50.03;2.92;;;;;;;14.63;100.00;97460.19;5055901;28;20445;-77
2021/06/12 03:12:42;;;;;;;2.72;2.00;;;;;;;14.59;100.00;97444.38;5039259;28;20070;-77
2021/06/12 03:15:09;;;;;;;4.47;1.15;;;;;;;14.63;100.00;97446.72;5055947;28;20658;-78
2021/06/12 03:17:35;;;;;;;3.33;0.70;;;;;;;14.71;100.00;97458.69;5074008;28;20483;-77
2021/06/12 03:20:02;;;;;;;0.98;0.57;;;;;;;14.55;100.00;97418.69;5055718;28;20502;-78
2021/06/12 03:22:28;;;;;;;2.25;1.23;;;;;;;14.59;100.00;97430.91;5055956;28;20094;-78
2021/06/12 03:24:54;;;;;;;2.25;0.75;;;;;;;14.66;100.00;97456.38;5055592;28;20036;-78
2021/06/12 03:27:20;;;;;;;1.08;0.80;;;;;;;14.73;100.00;97452.22;5055895;28;20475;-78
2021/06/12 03:29:46;;;;;;;10.25;2.38;;;;;;;14.64;100.00;97448.41;5054918;28;20032;-78
2021/06/12 03:32:12;;;;;;;0.70;0.70;;;;;;;14.65;100.00;97455.50;5038630;28;20032;-78
2021/06/12 03:34:37;;;;;;;3.15;1.88;;;;;;;14.68;100.00;97454.41;5038757;28;20032;-78
2021/06/12 03:37:04;;;;;;;1.70;1.33;;;;;;;14.72;100.00;97472.03;5038424;28;20051;-78
2021/06/12 03:39:29;;;;;;;3.75;1.25;;;;;;;14.78;100.00;97470.69;5055269;28;20016;-78
2021/06/12 03:41:56;;;;;;;11.00;1.17;;;;;;;14.80;100.00;97464.19;5038150;28;20037;-78
2021/06/12 03:44:23;;;;;;;0.52;0.40;;;;;;;14.79;100.00;97453.56;5055062;28;20111;-79
2021/06/12 03:46:49;;;;;;;0.73;0.35;;;;;;;14.67;100.00;97430.31;5054975;28;20029;-79
2021/06/12 03:49:16;;;;;;;0.93;0.70;;;;;;;14.72;100.00;97457.72;5055036;28;20487;-79
2021/06/12 03:51:42;;;;;;;1.23;0.80;;;;;;;14.86;100.00;97460.19;5055054;28;20017;-79
2021/06/12 03:54:08;;;;;;;0.70;0.57;;;;;;;14.72;100.00;97465.78;5038141;28;20039;-79
2021/06/12 03:56:35;;;;;;;0.98;0.75;;;;;;;14.72;100.00;97466.66;5038229;28;20029;-79
2021/06/12 03:59:01;;;;;;;2.92;0.98;;;;;;;14.80;100.00;97464.19;5055239;28;20086;-79
2021/06/12 04:01:27;;;;;;;1.30;0.82;;;;;;;14.82;100.00;97474.84;5054844;28;20078;-78
2021/06/12 04:03:53;;;;;;;1.23;1.15;;;;;;;14.77;100.00;97472.53;5054852;28;20020;-79
2021/06/12 04:06:19;;;;;;;0.57;0.55;;;;;;;14.98;100.00;97483.44;5054912;28;20103;-79
2021/06/12 04:08:47;;;;;;;0.80;0.55;;;;;;;15.12;100.00;97488.53;5054970;28;20554;-79
2021/06/12 04:11:13;;;;;;;1.10;1.00;;;;;;;15.10;100.00;97490.53;5037614;28;20452;-79
2021/06/12 04:13:38;;;;;;;2.05;1.35;;;;;;;14.93;100.00;97462.25;5055240;28;20055;-79
2021/06/12 04:16:04;;;;;;;1.95;1.73;;;;;;;14.99;100.00;97482.44;5037703;28;20043;-79
2021/06/12 04:18:30;;;;;;;1.63;1.27;;;;;;;14.97;100.00;97477.19;5054488;28;20029;-79
2021/06/12 04:20:56;;;;;;;3.47;0.68;;;;;;;15.04;100.00;97472.16;5037531;28;20471;-79
2021/06/12 04:23:22;;;;;;;1.55;1.05;;;;;;;15.17;100.00;97478.25;5037716;28;20028;-79
2021/06/12 04:25:47;;;;;;;1.10;0.98;;;;;;;15.17;100.00;97471.03;5054319;28;20453;-79
2021/06/12 04:28:13;;;;;;;6.90;1.08;;;;;;;15.11;100.00;97467.97;5054214;28;22178;-79
2021/06/12 04:30:38;;;;;;;0.95;0.70;;;;;;;15.28;100.00;97469.28;5037666;28;20487;-79
2021/06/12 04:33:04;;;;;;;0.73;0.73;;;;;;;15.27;100.00;97464.88;5053913;28;20030;-79
2021/06/12 04:35:31;;;;;;;0.80;0.52;;;;;;;15.23;100.00;97461.56;5037402;28;20058;-79
2021/06/12 04:38:00;;;;;;;0.90;0.85;;;;;;;15.40;100.00;97482.63;5037281;28;20537;-80
2021/06/12 04:40:31;;;;;;;2.97;1.27;;;;;;;15.41;100.00;97488.88;5037679;28;20472;-79
2021/06/12 04:42:57;;;;;;;0.63;0.63;;;;;;;15.55;100.00;97473.28;5070949;28;20119;-79
2021/06/12 04:45:23;;;;;;;0.90;0.90;;;;;;;15.61;100.00;97475.47;5053816;28;20111;-78
2021/06/12 04:47:49;;;;;;;2.78;2.00;;;;;;;15.68;100.00;97481.22;5053628;28;20115;-79
2021/06/12 04:50:14;;;;;;;2.50;0.68;;;;;;;15.68;100.00;97483.91;5036938;28;20467;-79
2021/06/12 04:52:40;;;;;;;0.28;0.28;;;;;;;15.72;100.00;97480.81;5053884;28;20107;-79
2021/06/12 04:55:09;;;;;;;0.47;0.47;;;;;;;15.83;100.00;97493.41;5036727;28;20380;-80
2021/06/12 04:57:35;;;;;;;2.20;0.82;;;;;;;15.72;100.00;97496.13;5053765;28;20483;-79
2021/06/12 05:00:01;;;;;;;3.22;1.20;;;;;;;15.58;100.00;97478.44;5053235;28;20055;-78
2021/06/12 05:02:26;;;;;;;22.10;1.73;;;;;;;15.66;100.00;97500.22;5053478;28;20025;-76
2021/06/12 05:04:52;;;;;;;3.38;1.80;;;;;;;15.74;100.00;97507.69;5053788;28;20037;-78
2021/06/12 05:07:17;;;;;;;0.82;0.73;;;;;;;15.78;100.00;97492.09;5053196;28;20043;-77
2021/06/12 05:09:43;;;;;;;1.05;1.00;;;;;;;16.00;100.00;97500.06;5071295;28;20078;-77
2021/06/12 05:12:09;;;;;;;1.70;1.33;;;;;;;16.11;100.00;97500.03;5036619;28;20441;-76
2021/06/12 05:14:35;;;;;;;2.30;0.77;;;;;;;16.38;100.00;97507.63;5071694;28;20029;-76
2021/06/12 05:17:04;;;;;;;0.77;0.68;;;;;;;16.57;100.00;97513.19;5071097;28;20032;-76
2021/06/12 05:19:29;;;;;;;1.42;0.75;;;;;;;16.77;100.00;97499.66;5053976;28;20031;-76
2021/06/12 05:21:55;;;;;;;0.70;0.70;;;;;;;16.94;100.00;97506.28;5036657;28;20021;-76
2021/06/12 05:24:21;;;;;;;0.55;0.55;;;;;;;17.00;100.00;97510.28;5052933;28;20039;-76
2021/06/12 05:26:46;;;;;;;1.85;0.77;;;;;;;17.08;100.00;97523.97;5071133;28;20032;-76
2021/06/12 05:29:12;;;;;;;0.52;0.52;;;;;;;17.06;100.00;97524.13;5070981;28;20035;-75
2021/06/12 05:31:37;;;;;;;1.73;1.02;;;;;;;17.13;100.00;97513.63;5036480;28;20020;-76
2021/06/12 05:34:03;;;;;;;0.30;0.30;;;;;;;17.24;100.00;97527.03;5036515;28;20032;-76
2021/06/12 05:36:30;;;;;;;0.63;0.63;;;;;;;17.27;100.00;97516.78;5053090;28;20407;-75
2021/06/12 05:38:56;;;;;;;0.90;0.52;;;;;;;17.27;100.00;97522.19;5070963;28;20510;-75
2021/06/12 05:41:22;;;;;;;1.80;0.95;;;;;;;17.24;100.00;97532.44;5070716;28;20054;-75
2021/06/12 05:43:47;;;;;;;1.48;1.38;;;;;;;17.28;100.00;97528.47;5053092;28;20024;-75
2021/06/12 05:46:13;;;;;;;1.05;1.02;;;;;;;17.15;100.00;97517.03;5052962;28;20028;-75
2021/06/12 05:48:38;;;;;;;1.92;0.93;;;;;;;17.42;100.00;97536.19;5070929;28;20056;-75
2021/06/12 05:51:04;;;;;;;0.95;0.77;;;;;;;17.31;100.00;97528.19;5071192;28;20032;-76
2021/06/12 05:53:29;;;;;;;1.13;0.40;;;;;;;17.41;100.00;97518.25;5035768;28;20029;-75
2021/06/12 05:55:55;;;;;;;0.43;0.43;;;;;;;17.57;100.00;97524.03;5049574;28;20036;-76
2021/06/12 05:58:20;;;;;;;0.40;0.40;;;;;;;17.87;100.00;97520.41;5054001;28;20036;-75
2021/06/12 06:00:46;;;;;;;38.58;1.88;;;;;;;18.28;99.91;97522.81;5054042;28;20061;-75
2021/06/12 06:03:12;;;;;;;1.38;0.85;;;;;;;18.31;93.81;97516.25;5072060;28;20120;-75
2021/06/12 06:05:38;;;;;;;1.55;0.77;;;;;;;18.12;96.24;97527.13;5072342;28;20052;-81
2021/06/12 06:08:04;;;;;;;1.42;0.88;;;;;;;18.55;96.83;97513.97;5054105;28;20082;-77
2021/06/12 06:10:30;;;;;;;1.30;0.90;;;;;;;18.64;94.02;97504.13;5054214;28;20036;-85
2021/06/12 06:13:00;;;;;;;1.60;1.10;;;;;;;19.39;87.98;97514.84;5037710;28;20036;-79
2021/06/12 06:15:26;;;;;;;1.98;0.88;;;;;;;20.32;81.23;97512.69;5053914;28;20549;-79
2021/06/12 06:17:52;;;;;;;3.13;1.58;;;;;;;20.45;82.25;97523.19;5054201;28;20040;-79
2021/06/12 06:20:17;;;;;;;1.80;1.08;;;;;;;20.63;81.14;97517.72;5053887;28;20094;-81
2021/06/12 06:22:43;;;;;;;2.17;1.17;;;;;;;21.14;77.29;97506.88;5072286;28;20025;-80
2021/06/12 06:25:09;;;;;;;0.77;0.50;;;;;;;21.12;78.55;97500.75;5054341;28;20032;-79
2021/06/12 06:27:35;;;;;;;0.25;0.25;;;;;;;21.85;74.50;97512.78;5053966;28;20028;-78
2021/06/12 06:30:01;;;;;;;6.40;1.40;;;;;;;22.17;74.08;97513.91;5054078;28;20059;-78
2021/06/12 06:32:26;;;;;;;0.85;0.82;;;;;;;22.31;73.16;97494.16;5053851;28;20058;-78
2021/06/12 06:34:52;;;;;;;1.35;0.98;;;;;;;21.83;75.39;97506.66;5071822;28;20494;-79
2021/06/12 06:37:18;;;;;;;0.90;0.80;;;;;;;21.69;77.17;97515.44;5053738;28;20094;-78
2021/06/12 06:39:43;;;;;;;4.22;0.77;;;;;;;21.59;75.96;97515.56;5054296;28;20118;-81
2021/06/12 06:42:09;;;;;;;0.80;0.80;;;;;;;22.37;73.30;97505.25;5036853;28;20452;-79
2021/06/12 06:44:36;;;;;;;0.55;0.55;;;;;;;22.81;72.52;97513.97;5036946;28;20036;-77
2021/06/12 06:47:04;;;;;;;0.35;0.35;;;;;;;23.65;69.10;97513.44;5053969;28;20056;-76
2021/06/12 06:49:29;;;;;;;1.30;0.88;;;;;;;23.41;67.79;97505.34;5053627;28;20487;-76
2021/06/12 06:51:55;;;;;;;0.98;0.88;;;;;;;23.71;67.15;97529.97;5063365;28;20025;-76
2021/06/12 06:54:21;;;;;;;0.38;0.38;;;;;;;23.18;68.56;97516.97;5071254;28;20025;-77
2021/06/12 06:56:46;;;;;;;1.80;1.27;;;;;;;23.06;69.62;97517.50;5071428;28;20039;-76
2021/06/12 06:59:12;;;;;;;1.17;0.57;;;;;;;23.83;67.48;97522.22;5036770;28;20036;-76
2021/06/12 07:01:38;;;;;;;0.38;0.38;;;;;;;25.10;61.91;97528.03;5053298;28;20140;-76
2021/06/12 07:04:04;;;;;;;0.75;0.73;;;;;;;25.37;61.33;97518.31;5053041;28;20036;-76
2021/06/12 07:06:31;;;;;;;0.20;0.20;;;;;;;24.33;60.49;97520.94;5052473;28;20039;-81
2021/06/12 07:08:56;;;;;;;1.35;1.00;;;;;;;25.17;59.91;97535.28;5053482;28;20085;-88
2021/06/12 07:11:22;;;;;;;0.45;0.45;;;;;;;24.66;59.57;97527.88;5038559;28;20024;-83
2021/06/12 07:13:47;;;;;;;1.77;1.02;;;;;;;24.01;61.83;97533.75;5036639;28;20111;-83
2021/06/12 07:16:13;;;;;;;0.52;0.52;;;;;;;24.13;63.00;97520.56;5037175;28;20063;-84
2021/06/12 07:18:39;;;;;;;0.40;0.40;;;;;;;24.67;62.04;97532.31;5036559;28;20028;-83
2021/06/12 07:21:05;;;;;;;1.00;0.57;;;;;;;25.48;60.49;97515.09;5036450;28;20119;-83
2021/06/12 07:23:30;;;;;;;1.73;0.93;;;;;;;25.68;60.23;97529.97;5036620;28;20035;-83
2021/06/12 07:25:56;;;;;;;1.10;0.50;;;;;;;25.90;59.48;97517.19;5055301;28;20032;-83
2021/06/12 07:28:22;;;;;;;0.43;0.43;;;;;;;26.48;53.47;97480.53;5055591;28;20078;-83
2021/06/12 07:30:48;;;;;;;0.45;0.30;;;;;;;27.04;52.16;97537.25;5038480;28;20548;-82
2021/06/12 07:33:14;;;;;;;0.35;0.35;;;;;;;27.54;52.29;97538.06;5054909;28;20512;-81
2021/06/12 07:35:41;;;;;;;0.50;0.50;;;;;;;28.72;47.69;97535.88;5038054;28;20032;-80
2021/06/12 07:38:07;;;;;;;2.10;1.20;;;;;;;27.86;50.70;97518.19;5055263;28;20445;-76
2021/06/12 07:40:33;;;;;;;0.77;0.65;;;;;;;29.21;49.02;97528.06;5053642;28;20050;-77
2021/06/12 07:42:58;;;;;;;1.80;0.95;;;;;;;30.04;44.73;97527.31;5054320;28;20032;-77
2021/06/12 07:45:24;;;;;;;4.20;1.08;;;;;;;30.15;46.99;97528.53;5054497;28;20059;-78
2021/06/12 07:47:50;;;;;;;2.13;1.27;;;;;;;31.22;44.02;97531.34;5054429;28;20035;-78
2021/06/12 07:50:16;;;;;;;1.08;0.63;;;;;;;30.85;44.38;97521.19;5037440;28;20062;-78
2021/06/12 07:52:42;;;;;;;0.73;0.73;;;;;;;32.28;42.46;97543.03;5054388;28;20028;-78
2021/06/12 07:55:08;;;;;;;0.70;0.70;;;;;;;31.05;41.85;97532.94;5053982;28;20416;-77
2021/06/12 07:57:34;;;;;;;1.50;0.50;;;;;;;30.00;45.45;97516.94;5054292;28;20032;-77
2021/06/12 07:59:59;;;;;;;17.63;1.15;;;;;;;31.31;42.67;97529.13;5053884;28;20049;-78
2021/06/12 08:02:25;;;;;;;1.15;0.82;;;;;;;30.42;44.75;97532.94;5071499;28;20479;-77
2021/06/12 08:04:51;;;;;;;0.32;0.32;;;;;;;30.89;44.93;97527.94;5053927;28;20036;-77
2021/06/12 08:07:17;;;;;;;0.93;0.93;;;;;;;31.61;41.94;97527.38;5053956;28;20078;-78
2021/06/12 08:09:43;;;;;;;0.77;0.73;;;;;;;31.84;40.70;97508.16;5037258;28;20034;-77
2021/06/12 08:12:09;;;;;;;2.03;0.98;;;;;;;31.38;41.57;97527.16;5071823;28;20097;-77
2021/06/12 08:14:34;;;;;;;0.60;0.60;;;;;;;32.00;42.19;97518.63;5054098;28;20383;-77
2021/06/12 08:17:00;;;;;;;10.23;0.90;;;;;;;31.49;43.05;97519.00;5052295;28;20033;-78
2021/06/12 08:19:25;;;;;;;0.95;0.85;;;;;;;30.84;42.83;97514.81;5037059;28;20950;-78
2021/06/12 08:21:51;;;;;;;0.63;0.63;;;;;;;30.99;42.60;97490.47;5053516;28;20032;-78
2021/06/12 08:24:17;;;;;;;0.77;0.60;;;;;;;31.96;42.55;97520.16;5053152;28;20569;-78
2021/06/12 08:26:42;;;;;;;2.45;1.02;;;;;;;32.98;40.44;97516.47;5072478;28;20043;-78
2021/06/12 08:29:08;;;;;;;12.57;5.78;;;;;;;32.74;39.93;97520.25;5053327;28;20517;-79
2021/06/12 08:31:35;;;;;;;7.45;4.22;;;;;;;32.77;38.96;97500.38;5051224;28;20507;-79
2021/06/12 08:34:01;;;;;;;4.82;4.05;;;;;;;34.10;37.23;97507.06;5036596;28;20043;-80
2021/06/12 08:36:26;;;;;;;6.65;4.07;;;;;;;35.37;34.06;97502.03;5048173;28;20481;-80
2021/06/12 08:38:58;;;;;;;5.07;4.15;;;;;;;36.18;29.85;97500.50;5145117;27;20159;-80
2021/06/12 08:41:23;;;;;;;4.55;4.15;;;;;;;35.77;32.56;97508.25;5127604;28;20165;-80
2021/06/12 08:43:51;;;;;;;9.82;5.13;;;;;;;34.69;33.78;97505.78;5108550;28;20035;-80
2021/06/12 08:46:16;;;;;;;9.95;4.82;;;;;;;34.73;33.04;97487.50;5125426;28;20039;-81
2021/06/12 08:48:43;;;;;;;6.53;4.93;;;;;;;34.22;33.67;97498.69;5108339;28;20023;-80
2021/06/12 08:51:08;;;;;;;6.30;3.80;;;;;;;34.82;30.82;97476.84;5125484;28;20034;-80
2021/06/12 08:53:36;;;;;;;7.50;4.70;;;;;;;33.97;34.42;97484.22;5125029;28;20023;-80
2021/06/12 08:56:02;;;;;;;10.65;4.53;;;;;;;34.22;34.01;97490.34;5125448;28;20027;-80
2021/06/12 08:58:28;;;;;;;5.38;4.57;;;;;;;34.88;32.65;97475.00;5125174;28;20092;-80
2021/06/12 09:00:54;;;;;;;6.60;4.13;;;;;;;34.26;32.18;97478.50;5108181;28;20031;-80
2021/06/12 09:03:23;;;;;;;5.20;4.22;;;;;;;34.69;29.67;97463.25;5125837;28;20050;-80
2021/06/12 09:05:50;;;;;;;4.82;3.80;;;;;;;34.98;30.59;97481.56;5118817;28;20409;-81
2021/06/12 09:08:21;;;;;;;4.22;3.80;;;;;;;36.25;27.62;97476.88;5126817;27;20031;-80
2021/06/12 09:11:01;;;;;;;3.80;3.38;;;;;;;34.73;31.89;97476.38;5125381;28;20027;-81
2021/06/12 09:13:45;;;;;;;4.45;4.03;;;;;;;35.30;30.13;97476.28;5126401;27;20019;-81
2021/06/12 09:16:33;;;;;;;11.85;4.80;;;;;;;34.67;33.20;97491.28;5125201;28;20027;-81
2021/06/12 09:19:14;;;;;;;6.88;4.07;;;;;;;35.21;31.57;97469.47;5124919;28;20505;-81
2021/06/12 09:21:41;;;;;;;5.22;4.72;;;;;;;35.41;30.98;97469.78;5126404;27;20379;-79
2021/06/12 09:24:19;;;;;;;7.35;4.10;;;;;;;35.82;31.20;97458.19;5125184;28;20445;-79
2021/06/12 09:26:51;;;;;;;13.45;4.00;;;;;;;36.11;30.30;97455.25;5126432;27;20500;-80
2021/06/12 09:29:20;;;;;;;18.23;8.45;;;;;;;35.88;30.57;97465.50;5107910;28;20034;-79
2021/06/12 09:31:51;;;;;;;4.38;3.78;;;;;;;34.73;29.80;97445.81;5124777;28;20027;-80
2021/06/12 09:34:19;;;;;;;10.00;5.95;;;;;;;34.71;31.35;97458.28;5124625;28;20053;-80
2021/06/12 09:36:46;;;;;;;17.13;7.10;;;;;;;34.44;33.48;97471.91;5124224;28;20023;-80
2021/06/12 09:39:21;;;;;;;12.30;4.13;;;;;;;33.99;33.54;97440.41;5107184;28;20042;-80
2021/06/12 09:41:49;;;;;;;10.05;6.78;;;;;;;34.03;35.07;97444.34;5107229;28;20558;-80
2021/06/12 09:44:30;;;;;;;7.10;4.28;;;;;;;34.37;33.82;97462.88;5124388;28;20110;-79
2021/06/12 09:46:56;;;;;;;5.97;4.10;;;;;;;33.18;35.78;97442.16;5124261;28;20075;-79
2021/06/12 09:49:30;;;;;;;6.85;3.58;;;;;;;34.43;32.99;97447.97;5099241;28;20061;-79
2021/06/12 09:52:01;;;;;;;6.20;3.35;;;;;;;34.73;32.12;97436.63;5110610;28;20039;-79
2021/06/12 09:54:40;;;;;;;9.52;3.88;;;;;;;35.63;30.55;97434.53;5110508;28;20119;-80
2021/06/12 09:57:07;;;;;;;4.20;3.35;;;;;;;36.08;30.37;97430.69;5112924;27;20049;-80
2021/06/12 09:59:40;;;;;;;4.22;3.05;;;;;;;36.54;29.43;97438.50;5113830;28;20032;-79
2021/06/12 10:02:06;;;;;;;2.80;2.60;;;;;;;36.45;27.74;97430.84;5113007;28;20031;-80
2021/06/12 10:04:32;;;;;;;9.80;3.17;;;;;;;35.14;30.67;97432.63;5113192;28;20026;-80
2021/06/12 10:06:58;;;;;;;6.60;3.35;;;;;;;35.81;30.97;97447.28;5113027;28;20028;-79
2021/06/12 10:09:25;;;;;;;4.43;2.90;;;;;;;36.42;28.73;97432.22;5113015;28;20024;-80
2021/06/12 10:11:50;;;;;;;5.75;2.88;;;;;;;35.69;28.87;97397.28;5112881;28;20408;-79
2021/06/12 10:14:16;;;;;;;3.28;3.00;;;;;;;33.84;32.02;97418.69;5095652;28;20024;-79
2021/06/12 10:16:42;;;;;;;4.22;3.00;;;;;;;33.20;32.01;97390.06;5112859;28;20074;-79
2021/06/12 10:19:09;;;;;;;6.13;2.83;;;;;;;34.30;32.35;97410.22;5112747;28;20031;-80
2021/06/12 10:21:34;;;;;;;7.32;4.43;;;;;;;35.86;28.47;97394.47;5112713;28;20031;-81
2021/06/12 10:24:04;;;;;;;3.90;2.85;;;;;;;36.50;27.09;97406.66;5112793;28;20031;-80
2021/06/12 10:26:29;;;;;;;2.47;2.28;;;;;;;37.47;25.09;97366.50;5112904;28;20024;-80
2021/06/12 10:28:55;;;;;;;2.80;2.50;;;;;;;39.11;22.47;97382.38;5112994;28;20498;-80
2021/06/12 10:31:23;;;;;;;3.05;2.47;;;;;;;38.82;23.22;97368.13;5095527;28;20039;-80
2021/06/12 10:33:52;;;;;;;2.08;1.90;;;;;;;38.26;23.99;97386.72;5112690;28;20027;-80
2021/06/12 10:36:28;;;;;;;9.02;3.63;;;;;;;37.20;25.52;97400.06;5112486;28;20072;-80
2021/06/12 10:38:55;;;;;;;2.95;2.50;;;;;;;35.32;27.65;97404.53;5112450;28;20040;-80
2021/06/12 10:41:26;;;;;;;4.45;2.53;;;;;;;36.67;25.20;97407.41;5095574;28;20019;-80
2021/06/12 10:43:58;;;;;;;4.63;2.75;;;;;;;35.72;28.55;97404.28;5112463;28;20031;-80
2021/06/12 10:46:28;;;;;;;4.15;2.72;;;;;;;36.21;28.29;97413.59;5112518;28;20428;-80
2021/06/12 10:49:01;;;;;;;3.30;2.33;;;;;;;37.30;24.99;97400.13;5095266;28;20095;-80
2021/06/12 10:51:27;;;;;;;7.40;4.45;;;;;;;36.33;26.72;97405.94;5112235;28;20023;-80
2021/06/12 10:54:07;;;;;;;9.30;4.65;;;;;;;35.38;28.41;97415.47;5111986;28;20038;-81
2021/06/12 10:56:38;;;;;;;6.85;3.90;;;;;;;33.33;32.38;97418.63;5112078;28;20027;-80
2021/06/12 10:59:04;;;;;;;4.57;2.50;;;;;;;30.34;35.71;97424.59;5094747;28;20028;-80
2021/06/12 11:01:30;;;;;;;7.82;2.78;;;;;;;28.98;37.79;97422.94;5110989;28;20023;-79
2021/06/12 11:04:09;;;;;;;5.53;2.10;;;;;;;27.49;38.93;97387.53;5094844;28;20092;-79
2021/06/12 11:07:05;;;;;;;8.82;2.20;;;;;;;26.92;42.88;97410.63;5113168;28;20023;-81
2021/06/12 11:09:35;;;;;;;6.15;2.15;;;;;;;26.60;44.66;97399.38;5096972;28;20558;-81
2021/06/12 11:12:02;;;;;;;5.45;2.22;;;;;;;26.21;43.66;97376.03;5094650;28;20034;-79
2021/06/12 11:14:34;;;;;;;4.13;2.30;;;;;;;26.18;42.61;97372.84;5111475;28;20468;-78
2021/06/12 11:17:10;;;;;;;2.28;1.77;;;;;;;27.66;38.14;97366.84;5094709;28;20031;-81
2021/06/12 11:19:45;;;;;;;4.18;1.77;;;;;;;29.17;35.22;97341.31;5105413;28;20024;-79
2021/06/12 11:22:27;;;;;;;2.42;1.60;;;;;;;29.46;34.29;97344.44;5112623;28;20066;-81
2021/06/12 11:25:03;;;;;;;7.88;2.35;;;;;;;28.91;36.63;97350.50;5111410;28;20126;-79
2021/06/12 11:27:36;;;;;;;8.35;2.80;;;;;;;28.80;35.84;97337.38;5112582;28;20111;-79
2021/06/12 11:30:16;;;;;;;3.50;2.42;;;;;;;29.79;34.58;97371.84;5112853;28;20095;-77
2021/06/12 11:33:03;;;;;;;6.03;2.28;;;;;;;31.92;33.84;97382.47;5110384;28;20035;-82